Wetterdaten: Woche 10.11.14 - 16.11.14 (KW46)
Datum Zeit Temp. A. Feuchte A. Luftdruck Regen Wind Richtung Sonnenschein ET UV Solar Taupunkt Windchill Windben
10.11.2014 00:00 6,1 C 95 % 1011,3 hPa 0,0 l/m 6,7 km/h (2 Bft) O-NO 0,00 h 0,000 mm 0,0 UV-I 0 W/m 5,3 C 5,1 C 12,6 km/h (3 Bft)
10.11.2014 01:00 5,9 C 95 % 1011,2 hPa 0,0 l/m 4,6 km/h (1 Bft) O 0,00 h 0,000 mm 0,0 UV-I 0 W/m 5,2 C 5,6 C 9,6 km/h (2 Bft)
10.11.2014 02:00 6,1 C 96 % 1011,4 hPa 0,0 l/m 1,3 km/h (1 Bft) SO 0,00 h 0,000 mm 0,0 UV-I 0 W/m 5,5 C 6,1 C 3,5 km/h (1 Bft)
10.11.2014 03:00 6,3 C 95 % 1011,3 hPa 0,0 l/m 0,3 km/h (0 Bft) N 0,00 h 0,000 mm 0,0 UV-I 0 W/m 5,6 C 6,3 C 1,2 km/h (1 Bft)
10.11.2014 04:00 6,5 C 96 % 1011,3 hPa 0,0 l/m 0,2 km/h (0 Bft) N 0,00 h 0,000 mm 0,0 UV-I 0 W/m 5,9 C 6,5 C 0,5 km/h (0 Bft)
10.11.2014 05:00 6,6 C 96 % 1011,7 hPa 0,0 l/m 2,2 km/h (1 Bft) N 0,00 h 0,000 mm 0,0 UV-I 0 W/m 5,9 C 6,6 C 3,7 km/h (1 Bft)
10.11.2014 06:00 6,3 C 96 % 1012,2 hPa 0,0 l/m 1,0 km/h (0 Bft) N 0,00 h 0,000 mm 0,0 UV-I 0 W/m 5,6 C 6,3 C 2,1 km/h (1 Bft)
10.11.2014 07:00 6,4 C 96 % 1012,6 hPa 0,0 l/m 1,8 km/h (1 Bft) S-SW 0,00 h 0,000 mm 0,0 UV-I 8 W/m 5,9 C 6,4 C 3,6 km/h (1 Bft)
10.11.2014 08:00 6,4 C 97 % 1013,5 hPa 0,0 l/m 4,4 km/h (1 Bft) S-SW 0,00 h 0,000 mm 0,0 UV-I 33 W/m 5,9 C 6,3 C 7,9 km/h (2 Bft)
10.11.2014 09:00 6,3 C 96 % 1013,8 hPa 0,0 l/m 3,9 km/h (1 Bft) S 0,00 h 0,025 mm 0,0 UV-I 32 W/m 5,8 C 6,2 C 6,9 km/h (2 Bft)
10.11.2014 10:00 6,4 C 96 % 1014,0 hPa 0,0 l/m 6,2 km/h (2 Bft) W-SW 0,08 h 0,025 mm 0,0 UV-I 41 W/m 5,8 C 5,9 C 9,8 km/h (2 Bft)
10.11.2014 11:00 6,6 C 95 % 1014,0 hPa 0,0 l/m 4,1 km/h (1 Bft) W-SW 0,58 h 0,025 mm 0,5 UV-I 52 W/m 5,9 C 6,6 C 7,1 km/h (2 Bft)
10.11.2014 12:00 6,8 C 96 % 1013,7 hPa 0,0 l/m 2,7 km/h (1 Bft) W-SW 0,13 h 0,025 mm 0,0 UV-I 40 W/m 6,2 C 6,8 C 5,4 km/h (1 Bft)
10.11.2014 13:00 6,8 C 96 % 1013,7 hPa 0,0 l/m 3,2 km/h (1 Bft) W-SW 0,00 h 0,025 mm 0,0 UV-I 35 W/m 6,2 C 6,8 C 5,6 km/h (2 Bft)
10.11.2014 14:00 6,7 C 95 % 1013,8 hPa 0,0 l/m 2,2 km/h (1 Bft) S 0,00 h 0,025 mm 0,0 UV-I 28 W/m 6,0 C 6,7 C 4,1 km/h (1 Bft)
10.11.2014 15:00 6,7 C 95 % 1014,1 hPa 0,0 l/m 2,2 km/h (1 Bft) S-SW 0,00 h 0,025 mm 0,0 UV-I 18 W/m 6,0 C 6,7 C 4,3 km/h (1 Bft)
10.11.2014 16:00 6,7 C 95 % 1014,1 hPa 0,0 l/m 0,6 km/h (0 Bft) W-SW 0,00 h 0,000 mm 0,0 UV-I 6 W/m 6,0 C 6,7 C 2,1 km/h (1 Bft)
10.11.2014 17:00 6,6 C 95 % 1014,4 hPa 0,0 l/m 0,8 km/h (0 Bft) W-SW 0,00 h 0,000 mm 0,0 UV-I 0 W/m 5,9 C 6,6 C 2,2 km/h (1 Bft)
10.11.2014 18:00 6,7 C 96 % 1014,3 hPa 0,0 l/m 0,7 km/h (0 Bft) N 0,00 h 0,000 mm 0,0 UV-I 0 W/m 6,1 C 6,7 C 1,8 km/h (1 Bft)
10.11.2014 19:00 6,5 C 96 % 1013,8 hPa 0,0 l/m 0,6 km/h (0 Bft) N 0,00 h 0,000 mm 0,0 UV-I 0 W/m 5,9 C 6,5 C 1,8 km/h (1 Bft)
10.11.2014 20:00 6,4 C 96 % 1014,1 hPa 0,0 l/m 0,4 km/h (0 Bft) N 0,00 h 0,000 mm 0,0 UV-I 0 W/m 5,8 C 6,4 C 1,6 km/h (1 Bft)
10.11.2014 21:00 6,3 C 96 % 1014,1 hPa 0,0 l/m 0,7 km/h (0 Bft) N 0,00 h 0,000 mm 0,0 UV-I 0 W/m 5,7 C 6,3 C 2,0 km/h (1 Bft)
10.11.2014 22:00 6,1 C 96 % 1014,2 hPa 0,0 l/m 0,2 km/h (0 Bft) N 0,00 h 0,003 mm 0,0 UV-I 0 W/m 5,6 C 6,1 C 0,8 km/h (0 Bft)
10.11.2014 23:00 5,6 C 96 % 1014,3 hPa 0,0 l/m 0,0 km/h (0 Bft) N 0,00 h 0,000 mm 0,0 UV-I 0 W/m 4,9 C 5,6 C 0,1 km/h (0 Bft)
11.11.2014 00:00 5,5 C 97 % 1014,3 hPa 0,0 l/m 0,2 km/h (0 Bft) N 0,00 h 0,000 mm 0,0 UV-I 0 W/m 5,1 C 5,5 C 0,8 km/h (0 Bft)
11.11.2014 01:00 5,8 C 97 % 1014,4 hPa 0,0 l/m 0,1 km/h (0 Bft) N 0,00 h 0,000 mm 0,0 UV-I 0 W/m 5,3 C 5,8 C 0,3 km/h (0 Bft)
11.11.2014 02:00 5,9 C 97 % 1014,1 hPa 0,0 l/m 0,5 km/h (0 Bft) N 0,00 h 0,000 mm 0,0 UV-I 0 W/m 5,5 C 5,9 C 1,6 km/h (1 Bft)
11.11.2014 03:00 6,2 C 97 % 1013,6 hPa 0,0 l/m 0,5 km/h (0 Bft) N 0,00 h 0,000 mm 0,0 UV-I 0 W/m 5,7 C 6,2 C 1,6 km/h (1 Bft)
11.11.2014 04:00 6,3 C 97 % 1013,3 hPa 0,0 l/m 1,2 km/h (1 Bft) N-NO 0,00 h 0,000 mm 0,0 UV-I 0 W/m 5,9 C 6,3 C 3,6 km/h (1 Bft)
11.11.2014 05:00 6,7 C 97 % 1013,2 hPa 0,0 l/m 0,7 km/h (0 Bft) N 0,00 h 0,000 mm 0,0 UV-I 0 W/m 6,3 C 6,7 C 2,4 km/h (1 Bft)
11.11.2014 06:00 7,0 C 97 % 1012,9 hPa 0,0 l/m 1,1 km/h (1 Bft) N 0,00 h 0,000 mm 0,0 UV-I 0 W/m 6,5 C 7,0 C 2,9 km/h (1 Bft)
11.11.2014 07:00 7,3 C 96 % 1012,6 hPa 0,0 l/m 3,2 km/h (1 Bft) O-NO 0,00 h 0,000 mm 0,0 UV-I 13 W/m 6,8 C 7,2 C 8,0 km/h (2 Bft)
11.11.2014 08:00 7,7 C 95 % 1012,3 hPa 0,0 l/m 5,3 km/h (1 Bft) O 0,43 h 0,000 mm 0,0 UV-I 53 W/m 7,0 C 7,3 C 11,0 km/h (2 Bft)
11.11.2014 09:00 8,3 C 94 % 1012,0 hPa 0,0 l/m 6,9 km/h (2 Bft) O 1,00 h 0,025 mm 0,6 UV-I 110 W/m 7,4 C 7,5 C 13,3 km/h (3 Bft)
11.11.2014 10:00 9,1 C 92 % 1011,8 hPa 0,2 l/m 6,1 km/h (2 Bft) O-NO 1,00 h 0,051 mm 0,9 UV-I 190 W/m 7,8 C 8,2 C 12,2 km/h (2 Bft)
11.11.2014 11:00 9,4 C 91 % 1011,0 hPa 0,0 l/m 7,4 km/h (2 Bft) O 1,00 h 0,102 mm 1,1 UV-I 201 W/m 8,1 C 8,1 C 13,3 km/h (3 Bft)
11.11.2014 12:00 10,0 C 90 % 1010,1 hPa 0,0 l/m 8,7 km/h (2 Bft) O-NO 1,00 h 0,102 mm 1,1 UV-I 214 W/m 8,4 C 8,4 C 15,3 km/h (3 Bft)
11.11.2014 13:00 9,8 C 90 % 1009,8 hPa 0,0 l/m 8,5 km/h (2 Bft) O 1,00 h 0,102 mm 0,8 UV-I 154 W/m 8,2 C 8,3 C 15,2 km/h (3 Bft)
11.11.2014 14:00 9,6 C 91 % 1009,3 hPa 0,0 l/m 6,5 km/h (2 Bft) O-NO 0,90 h 0,076 mm 0,6 UV-I 117 W/m 8,2 C 8,7 C 13,7 km/h (3 Bft)
11.11.2014 15:00 9,3 C 93 % 1009,2 hPa 0,0 l/m 3,9 km/h (1 Bft) O 0,27 h 0,051 mm 0,0 UV-I 41 W/m 8,2 C 9,1 C 9,0 km/h (2 Bft)
11.11.2014 16:00 9,3 C 93 % 1008,9 hPa 0,0 l/m 5,4 km/h (2 Bft) O-NO 0,00 h 0,025 mm 0,0 UV-I 7 W/m 8,3 C 8,8 C 10,8 km/h (2 Bft)
11.11.2014 17:00 9,5 C 94 % 1008,3 hPa 0,0 l/m 5,7 km/h (2 Bft) O 0,00 h 0,000 mm 0,0 UV-I 0 W/m 8,5 C 8,9 C 11,9 km/h (2 Bft)
11.11.2014 18:00 9,8 C 93 % 1007,8 hPa 0,0 l/m 7,0 km/h (2 Bft) O 0,00 h 0,000 mm 0,0 UV-I 0 W/m 8,8 C 8,9 C 13,2 km/h (3 Bft)
11.11.2014 19:00 10,0 C 93 % 1007,5 hPa 0,0 l/m 4,9 km/h (1 Bft) O 0,00 h 0,000 mm 0,0 UV-I 0 W/m 8,9 C 9,6 C 10,7 km/h (2 Bft)
11.11.2014 20:00 9,9 C 93 % 1007,3 hPa 0,0 l/m 4,1 km/h (1 Bft) O-NO 0,00 h 0,000 mm 0,0 UV-I 0 W/m 8,9 C 9,5 C 8,6 km/h (2 Bft)
11.11.2014 21:00 9,8 C 94 % 1007,0 hPa 0,0 l/m 7,6 km/h (2 Bft) O 0,00 h 0,000 mm 0,0 UV-I 0 W/m 8,9 C 8,6 C 13,7 km/h (3 Bft)
11.11.2014 22:00 9,6 C 94 % 1006,6 hPa 0,0 l/m 7,8 km/h (2 Bft) O 0,00 h 0,000 mm 0,0 UV-I 0 W/m 8,7 C 8,3 C 14,0 km/h (3 Bft)
11.11.2014 23:00 9,4 C 94 % 1006,4 hPa 0,0 l/m 6,0 km/h (2 Bft) O-NO 0,00 h 0,000 mm 0,0 UV-I 0 W/m 8,5 C 8,9 C 12,5 km/h (2 Bft)
12.11.2014 00:00 9,3 C 95 % 1006,2 hPa 0,0 l/m 7,2 km/h (2 Bft) O-NO 0,00 h 0,000 mm 0,0 UV-I 0 W/m 8,5 C 8,1 C 14,0 km/h (3 Bft)
12.11.2014 01:00 9,2 C 95 % 1005,8 hPa 0,0 l/m 7,3 km/h (2 Bft) O 0,00 h 0,000 mm 0,0 UV-I 0 W/m 8,4 C 8,1 C 13,9 km/h (3 Bft)
12.11.2014 02:00 9,2 C 95 % 1005,4 hPa 0,0 l/m 6,3 km/h (2 Bft) O 0,00 h 0,000 mm 0,0 UV-I 0 W/m 8,4 C 8,5 C 12,4 km/h (2 Bft)
12.11.2014 03:00 9,3 C 95 % 1005,0 hPa 0,0 l/m 7,0 km/h (2 Bft) O 0,00 h 0,000 mm 0,0 UV-I 0 W/m 8,5 C 8,2 C 13,7 km/h (3 Bft)
12.11.2014 04:00 9,4 C 95 % 1004,5 hPa 0,0 l/m 6,1 km/h (2 Bft) O 0,00 h 0,000 mm 0,0 UV-I 0 W/m 8,6 C 8,8 C 12,0 km/h (2 Bft)
12.11.2014 05:00 9,5 C 95 % 1004,2 hPa 0,0 l/m 7,1 km/h (2 Bft) O 0,00 h 0,000 mm 0,0 UV-I 0 W/m 8,7 C 8,4 C 13,2 km/h (3 Bft)
12.11.2014 06:00 9,6 C 95 % 1003,9 hPa 0,0 l/m 5,5 km/h (2 Bft) O-NO 0,00 h 0,000 mm 0,0 UV-I 0 W/m 8,8 C 9,2 C 11,6 km/h (2 Bft)
12.11.2014 07:00 9,6 C 95 % 1004,0 hPa 0,0 l/m 5,5 km/h (2 Bft) O 0,00 h 0,000 mm 0,0 UV-I 13 W/m 8,8 C 9,2 C 11,5 km/h (2 Bft)
12.11.2014 08:00 9,9 C 94 % 1004,1 hPa 0,0 l/m 5,3 km/h (1 Bft) O 0,38 h 0,000 mm 0,0 UV-I 43 W/m 9,0 C 9,5 C 10,4 km/h (2 Bft)
12.11.2014 09:00 10,4 C 93 % 1004,2 hPa 0,0 l/m 4,5 km/h (1 Bft) O 1,00 h 0,025 mm 0,6 UV-I 91 W/m 9,3 C 10,2 C 8,9 km/h (2 Bft)
12.11.2014 10:00 10,8 C 92 % 1004,3 hPa 0,0 l/m 5,1 km/h (1 Bft) O 1,00 h 0,051 mm 0,9 UV-I 169 W/m 9,5 C 10,4 C 10,4 km/h (2 Bft)
12.11.2014 11:00 12,1 C 88 % 1004,1 hPa 0,0 l/m 5,8 km/h (2 Bft) O-NO 1,00 h 0,076 mm 1,3 UV-I 310 W/m 10,1 C 11,6 C 11,0 km/h (2 Bft)
12.11.2014 12:00 12,9 C 84 % 1003,8 hPa 0,0 l/m 6,9 km/h (2 Bft) O-NO 1,00 h 0,153 mm 1,3 UV-I 346 W/m 10,4 C 12,1 C 12,1 km/h (2 Bft)
12.11.2014 13:00 12,4 C 85 % 1003,6 hPa 0,0 l/m 7,5 km/h (2 Bft) O-NO 1,00 h 0,178 mm 0,8 UV-I 150 W/m 10,0 C 11,4 C 13,2 km/h (3 Bft)
12.11.2014 14:00 11,2 C 88 % 1003,9 hPa 0,0 l/m 5,1 km/h (1 Bft) O-NO 1,00 h 0,076 mm 0,5 UV-I 107 W/m 9,3 C 10,9 C 9,9 km/h (2 Bft)
12.11.2014 15:00 10,9 C 89 % 1003,9 hPa 0,0 l/m 3,4 km/h (1 Bft) O 0,60 h 0,051 mm 0,0 UV-I 61 W/m 9,1 C 10,8 C 7,7 km/h (2 Bft)
12.11.2014 16:00 10,0 C 90 % 1004,1 hPa 0,0 l/m 3,7 km/h (1 Bft) O 0,00 h 0,025 mm 0,0 UV-I 11 W/m 8,5 C 9,8 C 7,0 km/h (2 Bft)
12.11.2014 17:00 9,3 C 93 % 1004,7 hPa 0,0 l/m 1,6 km/h (1 Bft) O 0,00 h 0,000 mm 0,0 UV-I 0 W/m 8,2 C 9,3 C 4,0 km/h (1 Bft)
12.11.2014 18:00 9,4 C 94 % 1005,0 hPa 0,0 l/m 2,8 km/h (1 Bft) O-NO 0,00 h 0,000 mm 0,0 UV-I 0 W/m 8,4 C 9,3 C 6,3 km/h (2 Bft)
12.11.2014 19:00 9,4 C 93 % 1005,6 hPa 0,0 l/m 2,0 km/h (1 Bft) O-NO 0,00 h 0,000 mm 0,0 UV-I 0 W/m 8,3 C 9,4 C 4,6 km/h (1 Bft)
12.11.2014 20:00 9,3 C 93 % 1005,8 hPa 0,0 l/m 1,4 km/h (1 Bft) O-NO 0,00 h 0,000 mm 0,0 UV-I 0 W/m 8,3 C 9,3 C 3,3 km/h (1 Bft)
12.11.2014 21:00 9,2 C 93 % 1006,3 hPa 0,0 l/m 2,8 km/h (1 Bft) N-NO 0,00 h 0,000 mm 0,0 UV-I 0 W/m 8,1 C 9,2 C 5,3 km/h (1 Bft)
12.11.2014 22:00 9,0 C 93 % 1006,8 hPa 0,0 l/m 1,3 km/h (1 Bft) N-NO 0,00 h 0,000 mm 0,0 UV-I 0 W/m 8,0 C 9,0 C 2,8 km/h (1 Bft)
12.11.2014 23:00 8,8 C 94 % 1007,1 hPa 0,0 l/m 2,5 km/h (1 Bft) N 0,00 h 0,000 mm 0,0 UV-I 0 W/m 7,8 C 8,7 C 4,4 km/h (1 Bft)
13.11.2014 00:00 8,6 C 94 % 1007,5 hPa 0,0 l/m 1,6 km/h (1 Bft) N-NO 0,00 h 0,000 mm 0,0 UV-I 0 W/m 7,7 C 8,6 C 3,4 km/h (1 Bft)
13.11.2014 01:00 8,4 C 95 % 1008,2 hPa 0,0 l/m 4,2 km/h (1 Bft) N 0,00 h 0,000 mm 0,0 UV-I 0 W/m 7,6 C 8,3 C 6,8 km/h (2 Bft)
13.11.2014 02:00 8,3 C 96 % 1008,7 hPa 0,0 l/m 1,0 km/h (0 Bft) N 0,00 h 0,000 mm 0,0 UV-I 0 W/m 7,7 C 8,3 C 2,7 km/h (1 Bft)
13.11.2014 03:00 8,4 C 96 % 1009,0 hPa 0,0 l/m 0,5 km/h (0 Bft) N 0,00 h 0,000 mm 0,0 UV-I 0 W/m 7,8 C 8,4 C 1,3 km/h (1 Bft)
13.11.2014 04:00 8,4 C 96 % 1009,5 hPa 0,0 l/m 1,5 km/h (1 Bft) N 0,00 h 0,000 mm 0,0 UV-I 0 W/m 7,8 C 8,4 C 3,3 km/h (1 Bft)
13.11.2014 05:00 8,4 C 96 % 1009,8 hPa 0,0 l/m 0,5 km/h (0 Bft) N 0,00 h 0,000 mm 0,0 UV-I 0 W/m 7,8 C 8,4 C 1,6 km/h (1 Bft)
13.11.2014 06:00 8,4 C 96 % 1010,2 hPa 0,0 l/m 0,5 km/h (0 Bft) W-NW 0,00 h 0,000 mm 0,0 UV-I 0 W/m 7,8 C 8,4 C 1,7 km/h (1 Bft)
13.11.2014 07:00 8,4 C 97 % 1010,7 hPa 0,0 l/m 0,8 km/h (0 Bft) W-NW 0,00 h 0,000 mm 0,0 UV-I 7 W/m 7,9 C 8,4 C 2,1 km/h (1 Bft)
13.11.2014 08:00 8,6 C 97 % 1011,2 hPa 0,0 l/m 0,1 km/h (0 Bft) N 0,00 h 0,000 mm 0,0 UV-I 23 W/m 8,1 C 8,6 C 0,8 km/h (0 Bft)
13.11.2014 09:00 9,0 C 96 % 1011,7 hPa 0,0 l/m 0,1 km/h (0 Bft) N 0,00 h 0,000 mm 0,0 UV-I 34 W/m 8,4 C 9,0 C 0,5 km/h (0 Bft)
13.11.2014 10:00 9,3 C 95 % 1012,0 hPa 0,0 l/m 2,8 km/h (1 Bft) N-NO 0,02 h 0,025 mm 0,0 UV-I 43 W/m 8,5 C 9,3 C 4,8 km/h (1 Bft)
13.11.2014 11:00 9,4 C 94 % 1012,3 hPa 0,0 l/m 4,5 km/h (1 Bft) N 0,27 h 0,026 mm 0,0 UV-I 46 W/m 8,5 C 9,3 C 6,7 km/h (2 Bft)
13.11.2014 12:00 9,4 C 94 % 1012,4 hPa 0,0 l/m 3,1 km/h (1 Bft) N 0,33 h 0,025 mm 0,0 UV-I 48 W/m 8,4 C 9,4 C 5,1 km/h (1 Bft)
13.11.2014 13:00 9,3 C 94 % 1012,6 hPa 0,0 l/m 1,7 km/h (1 Bft) N 0,02 h 0,025 mm 0,0 UV-I 38 W/m 8,4 C 9,3 C 3,5 km/h (1 Bft)
13.11.2014 14:00 9,3 C 94 % 1012,9 hPa 0,0 l/m 1,7 km/h (1 Bft) N-NW 0,00 h 0,025 mm 0,0 UV-I 23 W/m 8,4 C 9,3 C 3,7 km/h (1 Bft)
13.11.2014 15:00 9,3 C 94 % 1013,1 hPa 0,0 l/m 1,3 km/h (1 Bft) N-NW 0,00 h 0,000 mm 0,0 UV-I 11 W/m 8,3 C 9,3 C 3,0 km/h (1 Bft)
13.11.2014 16:00 9,1 C 94 % 1013,6 hPa 0,0 l/m 0,7 km/h (0 Bft) N-NW 0,00 h 0,000 mm 0,0 UV-I 0 W/m 8,2 C 9,1 C 2,1 km/h (1 Bft)
13.11.2014 17:00 8,9 C 95 % 1013,8 hPa 0,0 l/m 0,0 km/h (0 Bft) N 0,00 h 0,000 mm 0,0 UV-I 0 W/m 8,2 C 8,9 C 0,1 km/h (0 Bft)
13.11.2014 18:00 8,9 C 95 % 1014,1 hPa 0,0 l/m 0,0 km/h (0 Bft) N 0,00 h 0,000 mm 0,0 UV-I 0 W/m 8,2 C 8,9 C 0,1 km/h (0 Bft)
13.11.2014 19:00 8,9 C 96 % 1014,1 hPa 0,0 l/m 0,0 km/h (0 Bft) N 0,00 h 0,000 mm 0,0 UV-I 0 W/m 8,3 C 8,9 C 0,1 km/h (0 Bft)
13.11.2014 20:00 8,7 C 96 % 1014,1 hPa 0,0 l/m 0,1 km/h (0 Bft) N 0,00 h 0,000 mm 0,0 UV-I 0 W/m 8,1 C 8,7 C 0,3 km/h (0 Bft)
13.11.2014 21:00 8,7 C 96 % 1014,2 hPa 0,0 l/m 0,1 km/h (0 Bft) N 0,00 h 0,000 mm 0,0 UV-I 0 W/m 8,1 C 8,7 C 0,3 km/h (0 Bft)
13.11.2014 22:00 8,7 C 97 % 1014,3 hPa 0,0 l/m 0,0 km/h (0 Bft) N 0,00 h 0,001 mm 0,0 UV-I 0 W/m 8,3 C 8,7 C 0,0 km/h (0 Bft)
13.11.2014 23:00 8,7 C 97 % 1014,4 hPa 0,0 l/m 0,0 km/h (0 Bft) N 0,00 h 0,000 mm 0,0 UV-I 0 W/m 8,3 C 8,7 C 0,0 km/h (0 Bft)
14.11.2014 00:00 8,7 C 97 % 1014,4 hPa 0,0 l/m 0,0 km/h (0 Bft) N 0,00 h 0,000 mm 0,0 UV-I 0 W/m 8,3 C 8,7 C 0,3 km/h (0 Bft)
14.11.2014 01:00 8,7 C 96 % 1014,0 hPa 0,0 l/m 0,9 km/h (0 Bft) N-NW 0,00 h 0,000 mm 0,0 UV-I 0 W/m 8,2 C 8,7 C 2,6 km/h (1 Bft)
14.11.2014 02:00 9,1 C 93 % 1014,1 hPa 0,0 l/m 2,3 km/h (1 Bft) SO 0,00 h 0,000 mm 0,0 UV-I 0 W/m 8,0 C 9,1 C 5,8 km/h (2 Bft)
14.11.2014 03:00 8,7 C 93 % 1014,0 hPa 0,0 l/m 4,8 km/h (1 Bft) O 0,00 h 0,000 mm 0,0 UV-I 0 W/m 7,6 C 8,5 C 9,9 km/h (2 Bft)
14.11.2014 04:00 8,5 C 93 % 1013,6 hPa 0,0 l/m 2,9 km/h (1 Bft) O 0,00 h 0,000 mm 0,0 UV-I 0 W/m 7,5 C 8,4 C 6,6 km/h (2 Bft)
14.11.2014 05:00 8,8 C 92 % 1013,4 hPa 0,0 l/m 3,0 km/h (1 Bft) O-SO 0,00 h 0,000 mm 0,0 UV-I 0 W/m 7,6 C 8,7 C 6,4 km/h (2 Bft)
14.11.2014 06:00 8,9 C 90 % 1013,2 hPa 0,0 l/m 3,4 km/h (1 Bft) O-SO 0,00 h 0,000 mm 0,0 UV-I 0 W/m 7,4 C 8,8 C 7,5 km/h (2 Bft)
14.11.2014 07:00 8,9 C 90 % 1013,1 hPa 0,0 l/m 5,8 km/h (2 Bft) SO 0,00 h 0,000 mm 0,0 UV-I 6 W/m 7,4 C 8,2 C 11,1 km/h (2 Bft)
14.11.2014 08:00 9,0 C 91 % 1012,8 hPa 0,0 l/m 7,5 km/h (2 Bft) SO 0,00 h 0,000 mm 0,0 UV-I 22 W/m 7,6 C 7,8 C 13,5 km/h (3 Bft)
14.11.2014 09:00 9,4 C 90 % 1012,6 hPa 0,0 l/m 6,6 km/h (2 Bft) SO 0,28 h 0,025 mm 0,5 UV-I 44 W/m 7,8 C 8,6 C 12,4 km/h (2 Bft)
14.11.2014 10:00 9,8 C 89 % 1012,5 hPa 0,0 l/m 9,1 km/h (2 Bft) SO 1,00 h 0,025 mm 0,6 UV-I 93 W/m 8,0 C 7,9 C 15,4 km/h (3 Bft)
14.11.2014 11:00 10,5 C 86 % 1011,7 hPa 0,0 l/m 6,8 km/h (2 Bft) SO 1,00 h 0,051 mm 0,9 UV-I 178 W/m 8,3 C 9,6 C 12,3 km/h (2 Bft)
14.11.2014 12:00 10,8 C 85 % 1011,4 hPa 0,0 l/m 7,0 km/h (2 Bft) SO 1,00 h 0,102 mm 0,9 UV-I 167 W/m 8,3 C 10,0 C 12,1 km/h (2 Bft)
14.11.2014 13:00 11,1 C 84 % 1010,9 hPa 0,0 l/m 5,1 km/h (1 Bft) SO 1,00 h 0,102 mm 0,7 UV-I 155 W/m 8,5 C 10,7 C 10,0 km/h (2 Bft)
14.11.2014 14:00 10,8 C 85 % 1010,6 hPa 0,0 l/m 3,8 km/h (1 Bft) O 1,00 h 0,076 mm 0,6 UV-I 102 W/m 8,4 C 10,7 C 8,0 km/h (2 Bft)
14.11.2014 15:00 10,2 C 87 % 1010,3 hPa 0,0 l/m 4,5 km/h (1 Bft) O 0,27 h 0,051 mm 0,0 UV-I 32 W/m 8,1 C 10,0 C 8,9 km/h (2 Bft)
14.11.2014 16:00 9,6 C 89 % 1009,8 hPa 0,0 l/m 6,0 km/h (2 Bft) O-SO 0,00 h 0,025 mm 0,0 UV-I 7 W/m 7,8 C 9,1 C 11,2 km/h (2 Bft)
14.11.2014 17:00 9,5 C 89 % 1010,0 hPa 0,0 l/m 6,4 km/h (2 Bft) SO 0,00 h 0,000 mm 0,0 UV-I 0 W/m 7,8 C 8,7 C 11,3 km/h (2 Bft)
14.11.2014 18:00 9,6 C 89 % 1010,1 hPa 0,0 l/m 5,5 km/h (2 Bft) SO 0,00 h 0,025 mm 0,0 UV-I 0 W/m 7,9 C 8,9 C 9,5 km/h (2 Bft)
14.11.2014 19:00 9,6 C 90 % 1009,9 hPa 0,0 l/m 4,5 km/h (1 Bft) O 0,00 h 0,000 mm 0,0 UV-I 0 W/m 8,0 C 9,4 C 9,2 km/h (2 Bft)
14.11.2014 20:00 9,1 C 90 % 1009,6 hPa 0,0 l/m 2,5 km/h (1 Bft) O-SO 0,00 h 0,000 mm 0,0 UV-I 0 W/m 7,6 C 9,1 C 6,3 km/h (2 Bft)
14.11.2014 21:00 8,7 C 92 % 1009,3 hPa 0,0 l/m 1,5 km/h (1 Bft) O-SO 0,00 h 0,000 mm 0,0 UV-I 0 W/m 7,4 C 8,7 C 4,3 km/h (1 Bft)
14.11.2014 22:00 8,5 C 92 % 1009,1 hPa 0,0 l/m 2,1 km/h (1 Bft) SO 0,00 h 0,000 mm 0,0 UV-I 0 W/m 7,3 C 8,5 C 5,2 km/h (1 Bft)
14.11.2014 23:00 8,4 C 93 % 1008,9 hPa 0,0 l/m 1,1 km/h (1 Bft) O-SO 0,00 h 0,000 mm 0,0 UV-I 0 W/m 7,3 C 8,4 C 3,6 km/h (1 Bft)
15.11.2014 00:00 8,3 C 93 % 1008,2 hPa 0,0 l/m 1,2 km/h (1 Bft) SO 0,00 h 0,000 mm 0,0 UV-I 0 W/m 7,3 C 8,3 C 3,8 km/h (1 Bft)
15.11.2014 01:00 8,2 C 94 % 1007,6 hPa 0,0 l/m 1,8 km/h (1 Bft) O 0,00 h 0,000 mm 0,0 UV-I 0 W/m 7,4 C 8,2 C 4,6 km/h (1 Bft)
15.11.2014 02:00 8,6 C 94 % 1006,8 hPa 0,0 l/m 3,5 km/h (1 Bft) O-SO 0,00 h 0,000 mm 0,0 UV-I 0 W/m 7,6 C 8,5 C 7,9 km/h (2 Bft)
15.11.2014 03:00 9,3 C 91 % 1006,4 hPa 0,0 l/m 4,8 km/h (1 Bft) O-SO 0,00 h 0,000 mm 0,0 UV-I 0 W/m 7,8 C 8,9 C 9,9 km/h (2 Bft)
15.11.2014 04:00 9,2 C 90 % 1006,0 hPa 0,0 l/m 3,6 km/h (1 Bft) O-NO 0,00 h 0,000 mm 0,0 UV-I 0 W/m 7,7 C 9,0 C 8,7 km/h (2 Bft)
15.11.2014 05:00 9,1 C 90 % 1005,5 hPa 0,0 l/m 4,1 km/h (1 Bft) O-SO 0,00 h 0,000 mm 0,0 UV-I 0 W/m 7,6 C 8,9 C 8,9 km/h (2 Bft)
15.11.2014 06:00 9,1 C 90 % 1005,0 hPa 0,0 l/m 6,4 km/h (2 Bft) O 0,00 h 0,000 mm 0,0 UV-I 0 W/m 7,6 C 8,3 C 13,6 km/h (3 Bft)
15.11.2014 07:00 9,2 C 89 % 1005,0 hPa 0,0 l/m 5,3 km/h (1 Bft) O-SO 0,00 h 0,000 mm 0,0 UV-I 9 W/m 7,5 C 8,6 C 10,7 km/h (2 Bft)
15.11.2014 08:00 9,3 C 89 % 1005,2 hPa 0,0 l/m 3,2 km/h (1 Bft) O-SO 0,47 h 0,000 mm 0,0 UV-I 38 W/m 7,6 C 9,2 C 6,7 km/h (2 Bft)
15.11.2014 09:00 9,9 C 88 % 1005,2 hPa 0,0 l/m 4,1 km/h (1 Bft) O 1,00 h 0,025 mm 0,6 UV-I 129 W/m 7,9 C 9,7 C 8,6 km/h (2 Bft)
15.11.2014 10:00 10,7 C 85 % 1005,1 hPa 0,0 l/m 6,5 km/h (2 Bft) O 1,00 h 0,076 mm 0,9 UV-I 243 W/m 8,3 C 10,0 C 12,6 km/h (2 Bft)
15.11.2014 11:00 11,3 C 83 % 1004,8 hPa 0,0 l/m 6,0 km/h (2 Bft) O 1,00 h 0,127 mm 1,1 UV-I 273 W/m 8,5 C 10,7 C 11,6 km/h (2 Bft)
15.11.2014 12:00 11,9 C 80 % 1004,9 hPa 0,0 l/m 6,4 km/h (2 Bft) SO 1,00 h 0,152 mm 1,2 UV-I 350 W/m 8,6 C 11,2 C 11,2 km/h (2 Bft)
15.11.2014 13:00 12,0 C 79 % 1004,6 hPa 0,0 l/m 5,2 km/h (1 Bft) O-SO 1,00 h 0,178 mm 0,9 UV-I 303 W/m 8,6 C 11,7 C 9,7 km/h (2 Bft)
15.11.2014 14:00 11,0 C 81 % 1004,1 hPa 0,0 l/m 3,7 km/h (1 Bft) O-SO 1,00 h 0,152 mm 0,6 UV-I 100 W/m 7,9 C 10,9 C 7,7 km/h (2 Bft)
15.11.2014 15:00 10,0 C 85 % 1003,7 hPa 0,0 l/m 3,4 km/h (1 Bft) O 0,37 h 0,051 mm 0,0 UV-I 43 W/m 7,6 C 9,9 C 7,5 km/h (2 Bft)
15.11.2014 16:00 9,4 C 87 % 1003,8 hPa 0,0 l/m 2,0 km/h (1 Bft) SO 0,00 h 0,025 mm 0,0 UV-I 10 W/m 7,3 C 9,4 C 4,5 km/h (1 Bft)
15.11.2014 17:00 8,8 C 88 % 1003,4 hPa 0,0 l/m 0,3 km/h (0 Bft) N 0,00 h 0,000 mm 0,0 UV-I 0 W/m 7,0 C 8,8 C 1,4 km/h (1 Bft)
15.11.2014 18:00 8,3 C 91 % 1003,0 hPa 0,0 l/m 1,1 km/h (1 Bft) O 0,00 h 0,000 mm 0,0 UV-I 0 W/m 6,9 C 8,3 C 3,2 km/h (1 Bft)
15.11.2014 19:00 8,3 C 93 % 1002,5 hPa 0,0 l/m 2,7 km/h (1 Bft) O-NO 0,00 h 0,000 mm 0,0 UV-I 0 W/m 7,2 C 8,3 C 5,5 km/h (2 Bft)
15.11.2014 20:00 9,4 C 91 % 1001,9 hPa 0,0 l/m 6,2 km/h (2 Bft) O 0,00 h 0,000 mm 0,0 UV-I 0 W/m 8,0 C 8,8 C 12,0 km/h (2 Bft)
15.11.2014 21:00 9,7 C 89 % 1001,5 hPa 0,0 l/m 8,1 km/h (2 Bft) O 0,00 h 0,000 mm 0,0 UV-I 0 W/m 8,0 C 8,2 C 15,7 km/h (3 Bft)
15.11.2014 22:00 9,3 C 89 % 1000,9 hPa 0,0 l/m 8,7 km/h (2 Bft) O 0,00 h 0,025 mm 0,0 UV-I 0 W/m 7,7 C 7,4 C 15,8 km/h (3 Bft)
15.11.2014 23:00 9,1 C 90 % 1000,4 hPa 0,0 l/m 10,2 km/h (2 Bft) O 0,00 h 0,025 mm 0,0 UV-I 0 W/m 7,6 C 6,5 C 17,4 km/h (3 Bft)
16.11.2014 00:00 9,1 C 90 % 999,5 hPa 0,0 l/m 6,0 km/h (2 Bft) O-NO 0,00 h 0,025 mm 0,0 UV-I 0 W/m 7,5 C 8,3 C 11,4 km/h (2 Bft)
16.11.2014 01:00 9,2 C 90 % 999,3 hPa 0,0 l/m 5,6 km/h (2 Bft) O 0,00 h 0,000 mm 0,0 UV-I 0 W/m 7,6 C 8,6 C 11,3 km/h (2 Bft)
16.11.2014 02:00 9,3 C 90 % 998,8 hPa 0,0 l/m 5,7 km/h (2 Bft) O 0,00 h 0,000 mm 0,0 UV-I 0 W/m 7,7 C 8,7 C 11,4 km/h (2 Bft)
16.11.2014 03:00 9,3 C 90 % 998,3 hPa 0,0 l/m 4,6 km/h (1 Bft) O 0,00 h 0,000 mm 0,0 UV-I 0 W/m 7,7 C 9,1 C 10,5 km/h (2 Bft)
16.11.2014 04:00 9,3 C 90 % 998,2 hPa 0,0 l/m 4,3 km/h (1 Bft) SO 0,00 h 0,000 mm 0,0 UV-I 0 W/m 7,7 C 9,2 C 8,2 km/h (2 Bft)
16.11.2014 05:00 9,1 C 90 % 998,3 hPa 0,0 l/m 6,6 km/h (2 Bft) O-SO 0,00 h 0,000 mm 0,0 UV-I 0 W/m 7,6 C 8,4 C 11,8 km/h (2 Bft)
16.11.2014 06:00 9,1 C 91 % 998,4 hPa 0,0 l/m 6,0 km/h (2 Bft) SO 0,00 h 0,000 mm 0,0 UV-I 0 W/m 7,7 C 8,6 C 10,7 km/h (2 Bft)
16.11.2014 07:00 9,1 C 90 % 999,2 hPa 0,0 l/m 11,0 km/h (2 Bft) S-SO 0,00 h 0,000 mm 0,0 UV-I 0 W/m 7,6 C 6,3 C 16,0 km/h (3 Bft)
16.11.2014 08:00 8,3 C 92 % 1000,2 hPa 0,0 l/m 11,3 km/h (2 Bft) S 0,00 h 0,000 mm 0,0 UV-I 12 W/m 7,1 C 5,2 C 17,0 km/h (3 Bft)
16.11.2014 09:00 8,0 C 93 % 1001,0 hPa 0,0 l/m 10,7 km/h (2 Bft) S 0,00 h 0,000 mm 0,0 UV-I 20 W/m 7,0 C 5,1 C 16,5 km/h (3 Bft)
16.11.2014 10:00 7,9 C 91 % 1001,8 hPa 0,0 l/m 10,1 km/h (2 Bft) SW 0,33 h 0,025 mm 0,5 UV-I 46 W/m 6,5 C 5,4 C 16,1 km/h (3 Bft)
16.11.2014 11:00 7,7 C 93 % 1002,2 hPa 0,0 l/m 7,3 km/h (2 Bft) SW 0,65 h 0,025 mm 0,5 UV-I 65 W/m 6,6 C 6,6 C 11,9 km/h (2 Bft)
16.11.2014 12:00 7,8 C 90 % 1002,3 hPa 0,0 l/m 8,7 km/h (2 Bft) SW 0,15 h 0,025 mm 0,5 UV-I 42 W/m 6,2 C 6,0 C 13,9 km/h (3 Bft)
16.11.2014 13:00 7,8 C 87 % 1002,9 hPa 0,0 l/m 9,8 km/h (2 Bft) SW 0,00 h 0,025 mm 0,0 UV-I 28 W/m 5,8 C 5,4 C 15,3 km/h (3 Bft)
16.11.2014 14:00 7,4 C 90 % 1003,5 hPa 0,0 l/m 5,5 km/h (2 Bft) S 0,00 h 0,025 mm 0,0 UV-I 18 W/m 5,9 C 6,9 C 9,0 km/h (2 Bft)
16.11.2014 15:00 7,3 C 92 % 1004,1 hPa 0,0 l/m 5,8 km/h (2 Bft) S 0,00 h 0,025 mm 0,0 UV-I 18 W/m 6,1 C 7,0 C 9,3 km/h (2 Bft)
16.11.2014 16:00 7,4 C 91 % 1004,3 hPa 0,0 l/m 3,3 km/h (1 Bft) S-SO 0,00 h 0,000 mm 0,0 UV-I 5 W/m 6,1 C 7,4 C 5,6 km/h (2 Bft)
16.11.2014 17:00 7,7 C 89 % 1004,6 hPa 0,0 l/m 5,1 km/h (1 Bft) S-SO 0,00 h 0,000 mm 0,0 UV-I 0 W/m 6,0 C 7,6 C 7,7 km/h (2 Bft)
16.11.2014 18:00 7,8 C 88 % 1005,1 hPa 0,0 l/m 5,1 km/h (1 Bft) S-SO 0,00 h 0,000 mm 0,0 UV-I 0 W/m 5,9 C 7,7 C 7,9 km/h (2 Bft)
16.11.2014 19:00 7,9 C 87 % 1005,6 hPa 0,0 l/m 5,4 km/h (1 Bft) SO 0,00 h 0,000 mm 0,0 UV-I 0 W/m 5,9 C 7,8 C 8,9 km/h (2 Bft)
16.11.2014 20:00 7,7 C 88 % 1005,7 hPa 0,0 l/m 4,3 km/h (1 Bft) S-SO 0,00 h 0,025 mm 0,0 UV-I 0 W/m 5,8 C 7,7 C 6,9 km/h (2 Bft)
16.11.2014 21:00 6,8 C 89 % 1005,9 hPa 0,0 l/m 1,3 km/h (1 Bft) S-SO 0,00 h 0,000 mm 0,0 UV-I 0 W/m 5,1 C 6,8 C 2,6 km/h (1 Bft)
16.11.2014 22:00 5,5 C 91 % 1006,1 hPa 0,0 l/m 0,3 km/h (0 Bft) N 0,00 h 0,000 mm 0,0 UV-I 0 W/m 4,1 C 5,5 C 1,1 km/h (0 Bft)
16.11.2014 23:00 4,2 C 91 % 1006,4 hPa 0,0 l/m 0,2 km/h (0 Bft) N 0,00 h 0,000 mm 0,0 UV-I 0 W/m 3,0 C 4,2 C 0,4 km/h (0 Bft)
Min-Datum _ 16.11.14 15.11.14 16.11.14 - 10.11.14 - - - - - 16.11.14 16.11.14 10.11.14
_ Min-Zeit 09:25 14:07 04:05 - 01:35 - - - - - 23:56 10:04 02:43
Minimum _ 0,0 C 77 % 998,0 hPa - 0,0 km/h (0 Bft) - - - - - 2,3 C 0,4 C 0,0 km/h (0 Bft)
Max-Datum _ 12.11.14 11.11.14 10.11.14 11.11.14 16.11.14 - 13.11.14 12.11.14 12.11.14 12.11.14 12.11.14 12.11.14 11.11.14
_ Max-Zeit 12:59 05:02 17:33 10:58 10:04 - 11:57 13:00 11:09 12:44 12:58 12:53 14:30
Maximum _ 13,7 C 98 % 1014,6 hPa 0,2 l/m 20,9 km/h
SW (4 Bft)
- 0,07 h 0,178 mm 1,4 UV-I 471 W/m 11,1 C 13,4 C 30,6 km/h
O (5 Bft)
Durchschnitt _ 8,6 C 92 % 1008,4 hPa #0,2 l/m 3,9 km/h (1 Bft) N #28:32 h #2,992 mm 0,8 UV-I 81 W/m 7,5 C 8,2 C 7,5 km/h (2 Bft)